Time;durP1;ratioP1;P1;durP2;ratioP2;P2;SDS_P1;SDS_P2;PMS_P1;PMS_P2;Temp;Humidity;BMP_temperature;BMP_pressure;BME280_temperature;BME280_humidity;BME280_pressure;Samples;Min_cycle;Max_cycle;Signal;HPM_P1;HPM_P2
2023/07/29 00:01:45;;;;;;;4.87;3.22;;;;;;;19.34;100.00;99912.69;5585878;31;33787;-71
2023/07/29 00:04:49;;;;;;;4.68;3.30;;;;;;;19.25;100.00;99919.47;5585945;31;33586;-71
2023/07/29 00:07:51;;;;;;;7.85;3.33;;;;;;;19.24;100.00;99919.72;5585818;31;35064;-71
2023/07/29 00:10:54;;;;;;;7.72;3.15;;;;;;;19.22;100.00;99925.31;5585779;31;34256;-71
2023/07/29 00:13:56;;;;;;;4.05;3.08;;;;;;;19.23;100.00;99923.44;5584882;31;33804;-71
2023/07/29 00:16:59;;;;;;;4.45;2.92;;;;;;;19.21;100.00;99922.88;5586622;31;33851;-71
2023/07/29 00:20:03;;;;;;;6.47;3.00;;;;;;;19.19;100.00;99920.41;5588411;31;33722;-71
2023/07/29 00:23:09;;;;;;;6.72;3.42;;;;;;;19.20;100.00;99918.56;5588400;31;33934;-71
2023/07/29 00:26:11;;;;;;;6.12;3.00;;;;;;;19.18;100.00;99916.09;5588289;31;33969;-71
2023/07/29 00:29:14;;;;;;;4.80;3.12;;;;;;;19.09;100.00;99917.50;5588629;31;34695;-71
2023/07/29 00:32:17;;;;;;;6.18;3.37;;;;;;;19.05;100.00;99913.66;5588340;31;33674;-71
2023/07/29 00:35:20;;;;;;;6.22;3.37;;;;;;;19.05;100.00;99919.84;5588310;31;34240;-71
2023/07/29 00:38:23;;;;;;;4.78;3.00;;;;;;;18.97;100.00;99919.38;5588130;31;33909;-71
2023/07/29 00:41:26;;;;;;;7.82;3.05;;;;;;;18.90;100.00;99914.09;5588104;31;34515;-71
2023/07/29 00:44:28;;;;;;;7.93;3.50;;;;;;;18.76;100.00;99912.69;5587763;31;34398;-71
2023/07/29 00:47:31;;;;;;;6.25;3.10;;;;;;;18.76;100.00;99912.69;5588397;31;34436;-70
2023/07/29 00:50:34;;;;;;;8.65;3.60;;;;;;;18.80;100.00;99910.34;5587305;31;33756;-71
2023/07/29 00:53:37;;;;;;;5.82;3.20;;;;;;;18.70;100.00;99915.47;5588343;31;34374;-70
2023/07/29 00:56:42;;;;;;;9.20;3.92;;;;;;;18.61;100.00;99915.84;5588042;31;33769;-70
2023/07/29 00:59:45;;;;;;;10.02;3.75;;;;;;;18.62;100.00;99909.41;5587952;31;34499;-70
2023/07/29 01:02:47;;;;;;;5.65;3.40;;;;;;;18.70;100.00;99904.72;5587999;31;34944;-70
2023/07/29 01:06:07;;;;;;;7.97;3.20;;;;;;;18.62;100.00;99903.22;5587996;31;34595;-71
2023/07/29 01:09:29;;;;;;;5.60;3.22;;;;;;;18.59;100.00;99899.09;5587969;31;33682;-70
2023/07/29 01:12:38;;;;;;;6.80;3.35;;;;;;;18.55;100.00;99905.19;5587878;31;33467;-70
2023/07/29 01:15:50;;;;;;;5.15;3.20;;;;;;;18.45;100.00;99904.88;5588253;31;33887;-71
2023/07/29 01:18:55;;;;;;;8.18;3.75;;;;;;;18.34;100.00;99903.84;5587965;31;33757;-71
2023/07/29 01:21:58;;;;;;;8.68;3.42;;;;;;;18.31;100.00;99908.81;5587646;31;34458;-71
2023/07/29 01:25:01;;;;;;;7.37;3.40;;;;;;;18.23;100.00;99916.19;5587672;31;34514;-71
2023/07/29 01:28:04;;;;;;;4.55;3.33;;;;;;;18.18;100.00;99912.53;5587405;31;34553;-71
2023/07/29 01:31:20;;;;;;;6.85;3.62;;;;;;;18.12;100.00;99908.91;5588015;31;34353;-70
2023/07/29 01:34:29;;;;;;;6.90;3.03;;;;;;;18.18;100.00;99907.16;5587651;31;33909;-70
2023/07/29 01:37:34;;;;;;;6.93;3.40;;;;;;;18.08;100.00;99907.72;5587637;31;33758;-70
2023/07/29 01:40:37;;;;;;;9.45;3.50;;;;;;;18.00;100.00;99905.38;5587506;31;33856;-70
2023/07/29 01:43:43;;;;;;;7.45;3.37;;;;;;;17.99;100.00;99902.91;5586442;31;34873;-70
2023/07/29 01:46:47;;;;;;;4.82;3.00;;;;;;;17.94;100.00;99916.19;5547658;32;33855;-69
2023/07/29 01:49:50;;;;;;;9.95;3.75;;;;;;;17.95;100.00;99912.44;5548389;32;33958;-69
2023/07/29 01:52:53;;;;;;;4.90;3.08;;;;;;;17.99;100.00;99910.94;5548471;32;34337;-70
2023/07/29 01:55:57;;;;;;;8.35;3.62;;;;;;;17.98;100.00;99898.56;5548431;32;33744;-70
2023/07/29 01:59:00;;;;;;;5.32;3.33;;;;;;;18.02;100.00;99911.31;5565353;32;33942;-69
2023/07/29 02:02:03;;;;;;;7.28;3.00;;;;;;;17.95;100.00;99907.91;5567857;32;33521;-69
2023/07/29 02:05:06;;;;;;;5.10;3.35;;;;;;;17.87;100.00;99910.88;5567750;32;34606;-70
2023/07/29 02:08:09;;;;;;;6.10;3.37;;;;;;;17.83;100.00;99914.25;5567813;32;33953;-70
2023/07/29 02:11:13;;;;;;;5.03;3.28;;;;;;;17.77;100.00;99908.75;5567676;32;33566;-70
2023/07/29 02:14:16;;;;;;;8.13;3.65;;;;;;;17.69;100.00;99909.06;5567693;31;35242;-70
2023/07/29 02:17:19;;;;;;;7.10;3.83;;;;;;;17.65;100.00;99910.56;5568054;32;34103;-70
2023/07/29 02:20:21;;;;;;;5.40;3.50;;;;;;;17.62;100.00;99912.88;5567719;32;34281;-70
2023/07/29 02:23:24;;;;;;;7.60;3.72;;;;;;;17.59;100.00;99905.25;5567986;32;33832;-70
2023/07/29 02:26:27;;;;;;;6.10;3.62;;;;;;;17.59;100.00;99906.09;5568015;32;33738;-70
2023/07/29 02:29:30;;;;;;;8.50;3.47;;;;;;;17.57;100.00;99905.44;5567460;32;35293;-70
2023/07/29 02:32:33;;;;;;;6.07;3.60;;;;;;;17.56;100.00;99917.25;5553984;32;33973;-70
2023/07/29 02:35:36;;;;;;;7.47;3.35;;;;;;;17.55;100.00;99922.81;5567680;32;34416;-70
2023/07/29 02:38:39;;;;;;;7.20;3.70;;;;;;;17.55;100.00;99928.19;5566397;32;33841;-70
2023/07/29 02:41:42;;;;;;;7.95;3.90;;;;;;;17.53;100.00;99914.97;5567450;32;33995;-70
2023/07/29 02:44:45;;;;;;;6.22;3.78;;;;;;;17.56;100.00;99905.69;5574753;31;33445;-70
2023/07/29 02:47:48;;;;;;;5.62;3.37;;;;;;;17.54;100.00;99903.22;5586989;31;33650;-70
2023/07/29 02:50:51;;;;;;;4.62;3.42;;;;;;;17.53;100.00;99912.31;5586084;31;34052;-70
2023/07/29 02:53:53;;;;;;;7.93;3.30;;;;;;;17.50;100.00;99920.81;5587037;31;34540;-70
2023/07/29 02:56:56;;;;;;;8.25;3.72;;;;;;;17.48;100.00;99922.06;5586900;31;34186;-70
2023/07/29 02:59:59;;;;;;;8.57;3.33;;;;;;;17.45;100.00;99917.97;5586849;31;34437;-70
2023/07/29 03:03:02;;;;;;;4.82;3.40;;;;;;;17.44;100.00;99912.81;5602040;31;33645;-70
2023/07/29 03:06:07;;;;;;;6.35;3.47;;;;;;;17.43;100.00;99916.56;5604904;31;33730;-70
2023/07/29 03:09:10;;;;;;;4.18;3.08;;;;;;;17.39;100.00;99918.88;5606590;31;33709;-70
2023/07/29 03:12:13;;;;;;;4.43;3.05;;;;;;;17.41;100.00;99914.09;5606819;31;33863;-70
2023/07/29 03:15:15;;;;;;;4.70;3.30;;;;;;;17.36;100.00;99922.00;5606561;31;33859;-70
2023/07/29 03:18:18;;;;;;;7.60;3.10;;;;;;;17.44;100.00;99926.25;5606773;31;33848;-70
2023/07/29 03:21:21;;;;;;;6.40;3.28;;;;;;;17.33;100.00;99927.81;5606408;31;33683;-69
2023/07/29 03:24:24;;;;;;;6.62;3.00;;;;;;;17.28;100.00;99924.97;5606368;31;34512;-70
2023/07/29 03:27:26;;;;;;;4.20;3.10;;;;;;;17.22;100.00;99929.38;5605426;31;34207;-70
2023/07/29 03:30:29;;;;;;;5.55;3.00;;;;;;;17.26;100.00;99935.09;5606571;31;33822;-70
2023/07/29 03:33:32;;;;;;;7.53;3.40;;;;;;;17.21;100.00;99925.03;5606297;31;33872;-70
2023/07/29 03:36:35;;;;;;;6.20;3.20;;;;;;;17.21;100.00;99927.72;5606146;31;33855;-70
2023/07/29 03:39:38;;;;;;;9.82;3.47;;;;;;;17.20;100.00;99926.06;5606063;31;33626;-70
2023/07/29 03:42:41;;;;;;;5.25;3.10;;;;;;;17.23;100.00;99930.97;5604996;31;33861;-70
2023/07/29 03:45:43;;;;;;;7.95;3.28;;;;;;;17.28;100.00;99927.66;5605795;31;33698;-70
2023/07/29 03:48:46;;;;;;;7.57;3.00;;;;;;;17.32;100.00;99927.00;5605940;31;33674;-70
2023/07/29 03:51:49;;;;;;;5.65;3.10;;;;;;;17.37;100.00;99932.50;5607469;31;34566;-70
2023/07/29 03:54:52;;;;;;;5.43;3.40;;;;;;;17.46;100.00;99934.88;5608549;31;33627;-70
2023/07/29 03:57:54;;;;;;;5.03;3.40;;;;;;;17.53;100.00;99943.66;5607446;31;33686;-70
2023/07/29 04:00:57;;;;;;;4.20;3.17;;;;;;;17.57;100.00;99937.63;5607401;31;33642;-70
2023/07/29 04:04:00;;;;;;;7.10;2.97;;;;;;;17.63;100.00;99942.13;5608574;31;34684;-69
2023/07/29 04:07:03;;;;;;;6.50;3.15;;;;;;;17.68;100.00;99933.41;5607614;31;33534;-71
2023/07/29 04:10:07;;;;;;;7.25;3.25;;;;;;;17.84;100.00;99942.72;5608083;31;33477;-70
2023/07/29 04:13:10;;;;;;;8.75;3.33;;;;;;;18.04;100.00;99952.16;5608161;31;33872;-70
2023/07/29 04:16:13;;;;;;;5.85;3.28;;;;;;;18.08;100.00;99942.63;5608224;31;33744;-70
2023/07/29 04:19:15;;;;;;;5.00;2.87;;;;;;;18.18;100.00;99942.06;5608044;31;34014;-70
2023/07/29 04:22:18;;;;;;;4.55;3.40;;;;;;;18.30;100.00;99942.13;5607054;31;33836;-70
2023/07/29 04:25:21;;;;;;;5.12;2.92;;;;;;;18.47;100.00;99940.41;5607226;31;33538;-70
2023/07/29 04:28:24;;;;;;;11.60;3.40;;;;;;;18.67;100.00;99940.97;5607081;31;33696;-70
2023/07/29 04:31:27;;;;;;;7.75;3.15;;;;;;;18.90;100.00;99945.53;5607946;31;33692;-70
2023/07/29 04:34:30;;;;;;;9.82;3.28;;;;;;;19.07;100.00;99947.28;5607962;31;33835;-70
2023/07/29 04:37:34;;;;;;;5.55;3.40;;;;;;;19.18;100.00;99937.59;5607993;31;33791;-70
2023/07/29 04:40:37;;;;;;;3.83;3.05;;;;;;;19.38;100.00;99948.00;5607004;31;33724;-68
2023/07/29 04:43:40;;;;;;;5.82;2.75;;;;;;;19.28;100.00;99953.97;5607827;31;34721;-69
2023/07/29 04:46:43;;;;;;;7.95;2.97;;;;;;;19.46;100.00;99951.16;5607024;31;34328;-68
2023/07/29 04:49:45;;;;;;;5.75;3.03;;;;;;;19.61;100.00;99945.28;5607825;31;33841;-68
2023/07/29 04:52:48;;;;;;;9.05;3.05;;;;;;;19.64;100.00;99952.91;5607743;31;33541;-68
2023/07/29 04:55:51;;;;;;;4.57;2.83;;;;;;;19.57;100.00;99938.75;5607791;31;33744;-68
2023/07/29 04:58:55;;;;;;;4.50;3.08;;;;;;;19.54;100.00;99944.62;5607650;31;33876;-69
2023/07/29 05:01:57;;;;;;;6.62;3.55;;;;;;;19.55;100.00;99940.87;5606542;31;34828;-69
2023/07/29 05:05:00;;;;;;;7.87;3.42;;;;;;;19.59;100.00;99944.72;5607827;31;33523;-69
2023/07/29 05:08:03;;;;;;;5.22;3.55;;;;;;;19.69;100.00;99958.41;5606715;31;33958;-69
2023/07/29 05:11:05;;;;;;;5.82;3.92;;;;;;;19.87;100.00;99952.03;5607306;31;34466;-69
2023/07/29 05:14:09;;;;;;;7.90;4.00;;;;;;;20.18;100.00;99950.75;5607634;31;34035;-69
2023/07/29 05:17:12;;;;;;;7.20;4.35;;;;;;;20.51;100.00;99955.44;5606780;31;33437;-70
2023/07/29 05:20:14;;;;;;;8.43;4.07;;;;;;;20.80;100.00;99960.53;5607858;31;33817;-69
2023/07/29 05:23:18;;;;;;;5.12;3.60;;;;;;;21.08;100.00;99956.91;5606391;31;34306;-69
2023/07/29 05:26:20;;;;;;;6.28;3.60;;;;;;;21.27;100.00;99962.06;5607358;31;34193;-69
2023/07/29 05:29:23;;;;;;;7.15;3.87;;;;;;;21.43;100.00;99962.06;5607246;31;34427;-69
2023/07/29 05:32:26;;;;;;;9.77;3.47;;;;;;;21.71;100.00;99966.47;5607499;31;34595;-69
2023/07/29 05:35:29;;;;;;;4.43;3.10;;;;;;;21.63;100.00;99967.75;5606301;31;33495;-69
2023/07/29 05:38:31;;;;;;;7.85;4.00;;;;;;;21.72;100.00;99968.13;5606692;31;33575;-68
2023/07/29 05:41:34;;;;;;;4.45;3.22;;;;;;;21.91;100.00;99974.03;5606437;31;33773;-68
2023/07/29 05:44:37;;;;;;;7.25;3.22;;;;;;;21.93;100.00;99980.81;5606308;31;34239;-68
2023/07/29 05:47:41;;;;;;;7.20;3.28;;;;;;;22.10;100.00;99984.28;5606955;31;34300;-68
2023/07/29 05:50:44;;;;;;;6.65;3.25;;;;;;;22.23;100.00;99990.34;5607262;31;33552;-68
2023/07/29 05:53:47;;;;;;;5.35;3.12;;;;;;;22.38;100.00;99985.94;5603829;31;34540;-68
2023/07/29 05:56:49;;;;;;;6.22;3.12;;;;;;;22.50;100.00;99989.31;5589603;31;34320;-68
2023/07/29 05:59:52;;;;;;;10.32;3.70;;;;;;;22.61;100.00;99992.13;5585814;31;34885;-69
2023/07/29 06:02:55;;;;;;;8.80;3.10;;;;;;;22.75;100.00;99996.84;5587094;31;33771;-68
2023/07/29 06:05:58;;;;;;;6.90;3.15;;;;;;;22.89;100.00;100000.81;5587299;31;33652;-70
2023/07/29 06:09:00;;;;;;;6.93;3.55;;;;;;;22.93;100.00;100014.63;5587246;31;33889;-69
2023/07/29 06:12:04;;;;;;;5.45;3.20;;;;;;;22.92;100.00;100015.69;5596724;31;33769;-68
2023/07/29 06:15:07;;;;;;;3.70;3.00;;;;;;;22.85;100.00;100015.88;5605225;31;33473;-69
2023/07/29 06:18:10;;;;;;;5.57;3.28;;;;;;;22.78;100.00;100017.19;5602983;31;33765;-70
2023/07/29 06:21:16;;;;;;;6.55;3.50;;;;;;;22.88;100.00;100020.81;5600728;31;34712;-68
2023/07/29 06:24:20;;;;;;;5.05;3.40;;;;;;;22.86;100.00;100016.72;5587168;31;33913;-68
2023/07/29 06:27:22;;;;;;;8.07;3.40;;;;;;;22.91;100.00;100017.56;5587340;31;33692;-68
2023/07/29 06:30:25;;;;;;;7.15;3.67;;;;;;;22.96;100.00;100027.63;5587249;31;33803;-68
2023/07/29 06:33:28;;;;;;;5.80;3.75;;;;;;;22.95;100.00;100026.81;5586229;31;33351;-68
2023/07/29 06:36:31;;;;;;;5.40;3.85;;;;;;;22.95;100.00;100032.22;5587039;31;34314;-68
2023/07/29 06:39:33;;;;;;;7.47;3.80;;;;;;;23.13;100.00;100030.22;5587097;31;33741;-68
2023/07/29 06:42:37;;;;;;;4.75;3.50;;;;;;;23.21;100.00;100030.53;5588566;31;33757;-68
2023/07/29 06:45:39;;;;;;;6.40;3.67;;;;;;;23.26;100.00;100033.28;5606685;31;34359;-68
2023/07/29 06:48:42;;;;;;;8.35;3.72;;;;;;;23.43;100.00;100035.84;5606686;31;33732;-68
2023/07/29 06:51:45;;;;;;;7.22;3.70;;;;;;;23.64;100.00;100026.81;5606147;31;33674;-68
2023/07/29 06:54:47;;;;;;;14.30;3.67;;;;;;;23.83;100.00;100030.69;5602065;31;34494;-68
2023/07/29 06:57:50;;;;;;;4.60;3.10;;;;;;;23.99;100.00;100017.22;5606406;31;33556;-68
2023/07/29 07:00:53;;;;;;;5.35;3.40;;;;;;;24.08;100.00;100021.06;5606501;31;34427;-68
2023/07/29 07:03:58;;;;;;;5.28;3.28;;;;;;;24.25;100.00;100027.94;5606455;31;33588;-68
2023/07/29 07:07:02;;;;;;;6.50;3.33;;;;;;;24.38;100.00;100033.94;5606487;31;33525;-68
2023/07/29 07:10:05;;;;;;;9.00;3.00;;;;;;;24.72;100.00;100023.44;5604680;31;34341;-70
2023/07/29 07:13:08;;;;;;;3.65;2.80;;;;;;;25.03;100.00;100025.94;5605946;31;33795;-68
2023/07/29 07:16:10;;;;;;;6.07;2.70;;;;;;;25.05;100.00;100018.34;5606336;31;34595;-68
2023/07/29 07:19:13;;;;;;;8.13;3.15;;;;;;;25.42;100.00;100017.22;5606509;31;34241;-69
2023/07/29 07:22:16;;;;;;;3.92;2.60;;;;;;;25.82;100.00;100017.16;5591199;31;33822;-69
2023/07/29 07:25:19;;;;;;;6.32;2.70;;;;;;;26.35;100.00;100017.50;5585212;31;33729;-69
2023/07/29 07:28:21;;;;;;;9.27;2.72;;;;;;;26.46;96.87;100021.81;5602792;31;33888;-69
2023/07/29 07:31:24;;;;;;;4.82;2.50;;;;;;;27.39;84.75;100020.88;5606060;31;33902;-70
2023/07/29 07:34:27;;;;;;;5.37;2.50;;;;;;;27.93;81.59;100023.31;5605981;31;33467;-68
2023/07/29 07:37:30;;;;;;;8.27;2.50;;;;;;;27.93;78.71;100021.38;5605065;31;33718;-69
2023/07/29 07:40:33;;;;;;;4.20;2.15;;;;;;;28.76;76.28;100020.03;5605883;31;34916;-69
2023/07/29 07:43:36;;;;;;;3.58;2.22;;;;;;;29.22;66.90;100022.84;5605657;31;33928;-71
2023/07/29 07:46:39;;;;;;;4.95;2.42;;;;;;;28.63;72.19;100027.03;5598590;31;222119;-70
2023/07/29 07:49:42;;;;;;;4.12;2.37;;;;;;;28.90;74.49;100016.25;5605562;31;34406;-69
2023/07/29 07:52:45;;;;;;;5.37;2.40;;;;;;;27.96;76.28;100012.63;5594446;31;33775;-68
2023/07/29 07:55:48;;;;;;;4.15;2.45;;;;;;;28.81;71.79;100007.13;5601041;31;33542;-70
2023/07/29 07:58:51;;;;;;;6.15;2.30;;;;;;;29.57;67.21;100003.13;5599965;31;33862;-70
2023/07/29 08:01:54;;;;;;;4.57;2.50;;;;;;;30.15;63.67;100006.06;5604963;31;33841;-69
2023/07/29 08:04:56;;;;;;;11.45;2.53;;;;;;;31.04;58.61;99999.94;5605082;31;34224;-69
2023/07/29 08:07:59;;;;;;;4.25;2.42;;;;;;;31.88;56.38;100003.47;5604828;31;33613;-70
2023/07/29 08:11:02;;;;;;;3.45;2.30;;;;;;;32.04;52.87;100009.31;5604040;31;33585;-71
2023/07/29 08:14:05;;;;;;;6.18;2.10;;;;;;;32.93;51.63;100003.28;5604807;31;33780;-70
2023/07/29 08:17:08;;;;;;;6.10;2.10;;;;;;;33.19;48.42;100006.03;5603285;31;34308;-71
2023/07/29 08:20:10;;;;;;;3.28;2.10;;;;;;;32.76;49.11;99995.88;5595333;31;33833;-71
2023/07/29 08:23:13;;;;;;;2.62;1.95;;;;;;;31.76;53.37;99992.28;5584632;31;35174;-70
2023/07/29 08:26:16;;;;;;;4.18;2.10;;;;;;;33.08;49.55;99994.53;5585281;31;33823;-71
2023/07/29 08:29:19;;;;;;;4.20;2.00;;;;;;;33.12;48.17;99992.75;5588108;31;34248;-70
2023/07/29 08:32:22;;;;;;;3.58;1.90;;;;;;;33.04;48.57;99993.56;5591159;31;33712;-71
2023/07/29 08:35:25;;;;;;;2.17;1.52;;;;;;;33.00;48.17;99989.06;5586855;31;33589;-71
2023/07/29 08:38:28;;;;;;;2.92;1.80;;;;;;;34.87;43.97;99984.84;5585945;31;33836;-71
2023/07/29 08:41:38;;;;;;;1.62;1.50;;;;;;;33.09;44.67;99987.09;5587204;31;33741;-70
2023/07/29 08:44:43;;;;;;;2.65;1.70;;;;;;;33.53;43.77;99989.41;5587474;31;34654;-69
2023/07/29 08:47:47;;;;;;;2.85;1.70;;;;;;;32.49;46.89;99976.94;5587118;31;34777;-70
2023/07/29 08:50:52;;;;;;;4.18;2.00;;;;;;;33.62;43.87;99978.37;5594618;31;34588;-70
2023/07/29 08:53:55;;;;;;;1.85;1.25;;;;;;;34.32;42.86;99977.69;5597264;31;33784;-69
2023/07/29 08:56:59;;;;;;;2.87;1.45;;;;;;;35.08;37.34;99977.34;5607472;31;34792;-70
2023/07/29 09:00:03;;;;;;;3.37;1.30;;;;;;;33.58;40.02;99981.00;5607359;31;34716;-71
2023/07/29 09:03:06;;;;;;;1.98;1.00;;;;;;;33.32;39.42;99974.75;5606404;31;33508;-70
2023/07/29 09:06:11;;;;;;;1.67;0.90;;;;;;;32.66;38.15;99976.97;5606474;31;33821;-70
2023/07/29 09:09:14;;;;;;;2.15;1.00;;;;;;;33.01;40.10;99974.19;5607363;31;33735;-71
2023/07/29 09:12:17;;;;;;;1.00;0.90;;;;;;;32.93;38.56;99967.56;5606517;31;34720;-70
2023/07/29 09:15:28;;;;;;;3.65;0.90;;;;;;;33.48;39.82;99973.09;5607376;31;33761;-70
2023/07/29 09:18:31;;;;;;;1.80;0.95;;;;;;;32.68;39.40;99971.94;5605833;31;34344;-70
2023/07/29 09:21:38;;;;;;;1.87;1.00;;;;;;;32.62;38.54;99966.94;5606145;31;34368;-71
2023/07/29 09:24:41;;;;;;;3.65;1.20;;;;;;;32.75;38.67;99972.28;5603769;31;33794;-69
2023/07/29 09:27:43;;;;;;;2.25;1.25;;;;;;;33.90;36.62;99965.78;5606791;31;33755;-70
2023/07/29 09:30:47;;;;;;;1.80;1.15;;;;;;;33.24;37.87;99967.38;5606192;31;33064;-70
2023/07/29 09:33:55;;;;;;;1.87;1.20;;;;;;;32.99;37.27;99958.00;5606964;31;33705;-70
2023/07/29 09:36:58;;;;;;;2.65;1.17;;;;;;;32.76;38.22;99962.09;5607105;31;33658;-70
2023/07/29 09:40:00;;;;;;;2.80;1.12;;;;;;;33.00;38.28;99954.13;5606281;31;34715;-69
2023/07/29 09:43:04;;;;;;;1.50;1.30;;;;;;;33.08;38.67;99953.31;5606976;31;34430;-70
2023/07/29 09:46:07;;;;;;;3.08;1.27;;;;;;;33.10;38.03;99948.28;5606832;31;34467;-69
2023/07/29 09:49:10;;;;;;;2.50;1.25;;;;;;;34.31;36.16;99948.53;5606979;31;33544;-70
2023/07/29 09:52:21;;;;;;;2.25;1.48;;;;;;;33.61;37.64;99950.06;5606972;31;33799;-69
2023/07/29 09:55:26;;;;;;;1.77;1.20;;;;;;;34.20;35.63;99949.28;5606863;31;33534;-69
2023/07/29 09:58:29;;;;;;;1.35;1.10;;;;;;;32.77;36.65;99941.75;5606907;31;33752;-69
2023/07/29 10:01:34;;;;;;;3.03;1.00;;;;;;;32.99;36.51;99940.72;5606101;31;33805;-70
2023/07/29 10:04:38;;;;;;;1.33;1.02;;;;;;;35.70;34.00;99946.78;5606761;31;34776;-70
2023/07/29 10:07:40;;;;;;;1.83;1.20;;;;;;;36.21;31.90;99935.38;5605779;31;34031;-70
2023/07/29 10:10:44;;;;;;;1.23;1.02;;;;;;;37.77;30.01;99941.19;5606844;31;34717;-70
2023/07/29 10:13:48;;;;;;;1.12;1.00;;;;;;;35.52;32.91;99926.06;5607341;31;33469;-69
2023/07/29 10:17:09;;;;;;;1.45;1.10;;;;;;;35.42;33.44;99929.28;5606827;31;33722;-72
2023/07/29 10:20:11;;;;;;;1.17;1.00;;;;;;;34.69;34.06;99917.28;5606028;31;33490;-70
2023/07/29 10:23:16;;;;;;;1.85;1.15;;;;;;;35.73;33.14;99918.50;5606626;31;33718;-71
2023/07/29 10:26:20;;;;;;;1.95;1.08;;;;;;;38.31;30.99;99929.34;5606708;31;34534;-71
2023/07/29 10:29:24;;;;;;;1.73;1.10;;;;;;;37.74;29.86;99930.03;5605644;31;34816;-70
2023/07/29 10:32:29;;;;;;;4.32;1.30;;;;;;;37.03;29.85;99925.47;5605631;31;33750;-70
2023/07/29 10:35:34;;;;;;;1.20;1.10;;;;;;;36.65;32.31;99920.47;5604691;31;34387;-68
2023/07/29 10:38:37;;;;;;;1.30;1.10;;;;;;;37.80;29.04;99929.41;5607025;31;34430;-70
2023/07/29 10:42:04;;;;;;;3.33;1.10;;;;;;;38.93;29.29;99924.66;5606817;31;33897;-72
2023/07/29 10:45:20;;;;;;;2.22;1.20;;;;;;;38.82;28.11;99918.91;5606600;31;34013;-70
2023/07/29 10:48:35;;;;;;;2.87;1.12;;;;;;;38.32;29.35;99919.88;5606610;31;34082;-70
2023/07/29 10:51:41;;;;;;;1.85;1.00;;;;;;;36.98;30.56;99923.75;5603442;31;33714;-72
2023/07/29 10:54:46;;;;;;;2.25;1.15;;;;;;;36.92;31.49;99911.34;5606556;31;34355;-71
2023/07/29 10:57:49;;;;;;;3.42;1.10;;;;;;;33.91;36.46;99906.84;5606671;31;33626;-69
2023/07/29 11:00:52;;;;;;;3.83;1.20;;;;;;;32.67;38.34;99901.69;5605924;31;34576;-71
2023/07/29 11:04:23;;;;;;;1.45;1.17;;;;;;;32.15;39.45;99908.28;5606524;31;33749;-70
2023/07/29 11:07:27;;;;;;;2.10;1.30;;;;;;;31.77;40.18;99894.34;5606498;31;33721;-70
2023/07/29 11:10:43;;;;;;;1.50;1.20;;;;;;;34.68;36.02;99907.41;5600807;31;33645;-71
2023/07/29 11:13:46;;;;;;;3.03;1.20;;;;;;;37.08;32.10;99908.63;5586791;31;34603;-71
2023/07/29 11:16:49;;;;;;;3.83;1.40;;;;;;;35.14;35.35;99914.53;5586449;31;33952;-70
2023/07/29 11:19:55;;;;;;;1.83;1.20;;;;;;;32.54;38.65;99908.13;5586528;31;34643;-69
2023/07/29 11:23:03;;;;;;;3.85;1.20;;;;;;;31.85;40.41;99899.84;5586552;31;33833;-70
2023/07/29 11:26:06;;;;;;;1.42;1.10;;;;;;;31.74;41.74;99904.03;5586890;31;34763;-69
2023/07/29 11:29:09;;;;;;;1.92;1.15;;;;;;;32.53;40.51;99917.50;5586507;31;33700;-72
2023/07/29 11:32:13;;;;;;;2.47;1.27;;;;;;;33.08;39.16;99909.31;5585438;31;34490;-70
2023/07/29 11:35:17;;;;;;;2.10;1.10;;;;;;;34.27;38.26;99903.53;5586440;31;34150;-70
2023/07/29 11:38:21;;;;;;;1.90;1.17;;;;;;;35.25;36.04;99901.91;5586336;31;33866;-69
2023/07/29 11:41:24;;;;;;;3.55;1.35;;;;;;;36.79;32.92;99897.97;5585113;31;33500;-69
2023/07/29 11:44:28;;;;;;;1.92;1.20;;;;;;;36.69;33.81;99893.75;5585152;31;33829;-69
2023/07/29 11:47:31;;;;;;;2.42;1.20;;;;;;;38.24;30.97;99890.41;5586206;31;33783;-70
2023/07/29 11:50:35;;;;;;;3.65;1.12;;;;;;;40.59;28.37;99904.97;5586169;31;33939;-70
2023/07/29 11:53:37;;;;;;;1.77;1.27;;;;;;;41.36;26.73;99893.00;5586129;31;34088;-70
2023/07/29 11:56:40;;;;;;;2.50;1.33;;;;;;;41.50;26.47;99900.69;5586394;31;33437;-70
2023/07/29 11:59:43;;;;;;;1.40;1.10;;;;;;;39.10;28.61;99883.38;5586108;31;34260;-70
2023/07/29 12:02:48;;;;;;;2.25;1.30;;;;;;;37.79;30.82;99879.91;5585885;31;33755;-69
2023/07/29 12:05:52;;;;;;;1.42;1.10;;;;;;;37.82;31.62;99877.22;5585810;31;34007;-69
2023/07/29 12:08:55;;;;;;;1.45;1.25;;;;;;;37.86;31.40;99867.00;5572188;31;33541;-70
2023/07/29 12:11:58;;;;;;;2.58;1.20;;;;;;;38.48;30.45;99850.53;5585831;31;33509;-70
2023/07/29 12:15:01;;;;;;;2.40;1.20;;;;;;;38.58;30.69;99861.81;5588398;31;34339;-71
2023/07/29 12:18:04;;;;;;;3.90;1.25;;;;;;;40.13;27.78;99862.72;5587301;31;33730;-70
2023/07/29 12:21:07;;;;;;;1.20;1.10;;;;;;;39.71;26.25;99859.34;5588318;31;34210;-69
2023/07/29 12:24:12;;;;;;;1.50;1.10;;;;;;;41.79;24.26;99865.44;5588293;31;34270;-70
2023/07/29 12:27:15;;;;;;;1.37;1.10;;;;;;;43.89;23.64;99856.22;5588701;31;34634;-69
2023/07/29 12:30:23;;;;;;;1.60;1.23;;;;;;;42.37;24.23;99857.78;5588747;31;34309;-70
2023/07/29 12:33:34;;;;;;;1.87;1.25;;;;;;;43.06;23.15;99856.72;5588351;31;35330;-70
2023/07/29 12:36:45;;;;;;;1.83;1.20;;;;;;;37.83;27.19;99845.59;5588279;31;33755;-71
2023/07/29 12:39:50;;;;;;;2.00;1.30;;;;;;;37.88;28.42;99843.69;5587784;31;33811;-69
2023/07/29 12:42:53;;;;;;;2.08;1.27;;;;;;;37.42;29.80;99847.00;5587199;31;33724;-72
2023/07/29 12:45:57;;;;;;;6.30;1.58;;;;;;;35.08;32.01;99842.25;5587813;31;33751;-69
2023/07/29 12:49:00;;;;;;;2.17;1.33;;;;;;;35.86;30.81;99847.53;5587667;31;35257;-69
2023/07/29 12:52:02;;;;;;;1.80;1.50;;;;;;;37.03;29.96;99847.22;5598241;31;33977;-70
2023/07/29 12:55:08;;;;;;;1.40;1.25;;;;;;;36.57;30.12;99841.25;5587661;31;34762;-71
2023/07/29 12:58:11;;;;;;;1.75;1.30;;;;;;;36.19;31.11;99832.72;5588370;31;34830;-69
2023/07/29 13:01:18;;;;;;;1.60;1.30;;;;;;;36.08;31.06;99829.59;5587115;31;34439;-70
2023/07/29 13:04:20;;;;;;;2.28;1.40;;;;;;;38.53;28.85;99825.28;5587711;31;33751;-71
2023/07/29 13:07:23;;;;;;;4.28;1.30;;;;;;;39.47;25.29;99830.84;5586691;31;34728;-70
2023/07/29 13:10:26;;;;;;;1.40;1.30;;;;;;;39.48;26.80;99820.53;5601332;31;34353;-71
2023/07/29 13:13:29;;;;;;;1.73;1.23;;;;;;;41.40;23.95;99834.56;5607712;31;33052;-70
2023/07/29 13:16:32;;;;;;;2.10;1.33;;;;;;;42.53;23.37;99832.34;5607574;31;34460;-71
2023/07/29 13:19:35;;;;;;;2.40;1.50;;;;;;;40.29;25.15;99827.19;5601314;31;34562;-70
2023/07/29 13:22:37;;;;;;;1.75;1.30;;;;;;;40.27;24.69;99824.00;5587667;31;33579;-70
2023/07/29 13:25:40;;;;;;;4.22;1.35;;;;;;;39.91;25.90;99819.16;5594201;31;33551;-70
2023/07/29 13:28:43;;;;;;;2.03;1.42;;;;;;;38.71;26.15;99815.31;5607455;31;34261;-69
2023/07/29 13:31:46;;;;;;;3.50;1.20;;;;;;;39.17;25.88;99816.06;5606316;31;33824;-70
2023/07/29 13:34:49;;;;;;;2.28;1.35;;;;;;;36.61;28.73;99805.44;5602550;31;33703;-70
2023/07/29 13:37:53;;;;;;;2.35;1.50;;;;;;;38.43;26.94;99807.25;5586512;31;33742;-70
2023/07/29 13:40:56;;;;;;;1.50;1.40;;;;;;;40.38;24.97;99810.19;5587261;31;34849;-70
2023/07/29 13:43:58;;;;;;;2.70;1.40;;;;;;;41.34;23.96;99803.53;5587150;31;33602;-73
2023/07/29 13:47:01;;;;;;;1.92;1.40;;;;;;;42.05;23.20;99801.13;5587313;31;33682;-69
2023/07/29 13:50:05;;;;;;;2.37;1.33;;;;;;;41.68;24.18;99800.56;5587133;31;34281;-70
2023/07/29 13:53:07;;;;;;;1.92;1.40;;;;;;;43.48;22.83;99783.28;5587458;31;33505;-71
2023/07/29 13:56:10;;;;;;;1.62;1.40;;;;;;;44.15;21.50;99791.41;5586468;31;34350;-70
2023/07/29 13:59:13;;;;;;;1.95;1.40;;;;;;;44.90;21.00;99780.50;5587518;31;34088;-68
2023/07/29 14:02:16;;;;;;;1.87;1.50;;;;;;;43.78;20.94;99779.97;5587287;31;33773;-70
2023/07/29 14:05:19;;;;;;;1.50;1.27;;;;;;;44.78;20.08;99784.62;5592902;31;34615;-70
2023/07/29 14:08:22;;;;;;;1.60;1.50;;;;;;;42.82;21.89;99782.97;5585935;31;33585;-70
2023/07/29 14:11:25;;;;;;;5.15;1.30;;;;;;;38.48;26.23;99765.41;5587111;31;33726;-69
2023/07/29 14:14:28;;;;;;;1.52;1.37;;;;;;;38.00;26.75;99763.28;5601959;31;33796;-70
2023/07/29 14:17:31;;;;;;;1.50;1.40;;;;;;;37.36;27.23;99761.88;5606904;31;34574;-71